createdAt,value
2023-04-26T00:00:27.736Z,650.00
2023-04-26T00:01:27.751Z,648.00
2023-04-26T00:02:28.025Z,650.00
2023-04-26T00:03:27.040Z,651.00
2023-04-26T00:04:27.151Z,647.00
2023-04-26T00:05:27.955Z,648.00
2023-04-26T00:06:27.946Z,644.00
2023-04-26T00:07:27.009Z,648.00
2023-04-26T00:08:28.020Z,647.00
2023-04-26T00:09:27.064Z,648.00
2023-04-26T00:10:28.116Z,647.00
2023-04-26T00:11:27.157Z,650.00
2023-04-26T00:12:27.207Z,646.00
2023-04-26T00:13:28.256Z,647.00
2023-04-26T00:14:28.312Z,648.00
2023-04-26T00:15:28.404Z,647.00
2023-04-26T00:16:28.427Z,649.00
2023-04-26T00:17:28.496Z,651.00
2023-04-26T00:18:27.530Z,648.00
2023-04-26T00:19:28.580Z,648.00
2023-04-26T00:20:27.660Z,650.00
2023-04-26T00:21:27.682Z,650.00
2023-04-26T00:22:27.718Z,649.00
2023-04-26T00:23:27.770Z,649.00
2023-04-26T00:24:27.827Z,648.00
2023-04-26T00:25:27.885Z,649.00
2023-04-26T00:26:28.927Z,645.00
2023-04-26T00:27:28.024Z,650.00
2023-04-26T00:28:29.043Z,650.00
2023-04-26T00:29:28.113Z,647.00
2023-04-26T00:30:28.197Z,650.00
2023-04-26T00:31:28.264Z,650.00
2023-04-26T00:32:29.443Z,652.00
2023-04-26T00:33:29.332Z,648.00
2023-04-26T00:34:28.413Z,649.00
2023-04-26T00:35:29.446Z,645.00
2023-04-26T00:36:29.496Z,644.00
2023-04-26T00:37:29.561Z,642.00
2023-04-26T00:38:28.860Z,645.00
2023-04-26T00:39:29.669Z,644.00
2023-04-26T00:40:28.729Z,643.00
2023-04-26T00:41:28.795Z,649.00
2023-04-26T00:42:28.855Z,650.00
2023-04-26T00:43:29.905Z,644.00
2023-04-26T00:44:29.951Z,646.00
2023-04-26T00:45:29.047Z,646.00
2023-04-26T00:46:30.098Z,644.00
2023-04-26T00:47:30.182Z,641.00
2023-04-26T00:48:30.193Z,642.00
2023-04-26T00:49:29.258Z,642.00
2023-04-26T00:50:29.288Z,652.00
2023-04-26T00:51:29.351Z,644.00
2023-04-26T00:52:30.431Z,645.00
2023-04-26T00:53:30.488Z,646.00
2023-04-26T00:54:29.547Z,648.00
2023-04-26T00:55:30.623Z,646.00
2023-04-26T00:56:30.744Z,645.00
2023-04-26T00:57:29.719Z,649.00
2023-04-26T00:58:30.778Z,644.00
2023-04-26T00:59:30.818Z,643.00
2023-04-26T01:00:30.892Z,642.00
2023-04-26T01:01:30.995Z,639.00
2023-04-26T01:02:30.124Z,649.00
2023-04-26T01:03:30.216Z,642.00
2023-04-26T01:04:31.157Z,644.00
2023-04-26T01:05:30.178Z,650.00
2023-04-26T01:06:31.220Z,644.00
2023-04-26T01:07:31.278Z,647.00
2023-04-26T01:08:30.355Z,641.00
2023-04-26T01:09:31.453Z,641.00
2023-04-26T01:10:32.259Z,642.00
2023-04-26T01:11:31.792Z,646.00
2023-04-26T01:12:31.591Z,647.00
2023-04-26T01:13:31.641Z,641.00
2023-04-26T01:14:30.699Z,641.00
2023-04-26T01:15:31.753Z,642.00
2023-04-26T01:16:31.863Z,643.00
2023-04-26T01:17:31.902Z,637.00
2023-04-26T01:18:31.969Z,639.00
2023-04-26T01:19:31.990Z,640.00
2023-04-26T01:20:31.035Z,646.00
2023-04-26T01:21:32.104Z,639.00
2023-04-26T01:22:32.165Z,637.00
2023-04-26T01:23:31.217Z,643.00
2023-04-26T01:24:31.265Z,641.00
2023-04-26T01:25:31.330Z,638.00
2023-04-26T01:26:31.384Z,639.00
2023-04-26T01:27:31.490Z,638.00
2023-04-26T01:28:31.512Z,642.00
2023-04-26T01:29:31.531Z,644.00
2023-04-26T01:30:32.636Z,646.00
2023-04-26T01:31:31.753Z,635.00
2023-04-26T01:32:32.765Z,637.00
2023-04-26T01:33:31.757Z,637.00
2023-04-26T01:34:32.839Z,637.00
2023-04-26T01:35:32.888Z,645.00
2023-04-26T01:36:31.927Z,641.00
2023-04-26T01:37:31.996Z,637.00
2023-04-26T01:38:33.052Z,643.00
2023-04-26T01:39:33.118Z,639.00
2023-04-26T01:40:32.193Z,646.00
2023-04-26T01:41:33.228Z,641.00
2023-04-26T01:42:32.302Z,640.00
2023-04-26T01:43:33.329Z,645.00
2023-04-26T01:44:33.411Z,642.00
2023-04-26T01:45:33.506Z,638.00
2023-04-26T01:46:32.629Z,637.00
2023-04-26T01:47:33.614Z,638.00
2023-04-26T01:48:33.647Z,642.00
2023-04-26T01:49:33.705Z,645.00
2023-04-26T01:50:33.801Z,643.00
2023-04-26T01:51:33.848Z,641.00
2023-04-26T01:52:33.895Z,639.00
2023-04-26T01:53:33.949Z,637.00
2023-04-26T01:54:33.000Z,638.00
2023-04-26T01:55:34.137Z,638.00
2023-04-26T01:56:33.204Z,642.00
2023-04-26T01:57:33.210Z,637.00
2023-04-26T01:58:33.274Z,635.00
2023-04-26T01:59:34.293Z,644.00
2023-04-26T02:00:33.343Z,637.00
2023-04-26T02:01:34.482Z,639.00
2023-04-26T02:02:34.545Z,643.00
2023-04-26T02:03:34.597Z,638.00
2023-04-26T02:04:34.632Z,634.00
2023-04-26T02:05:33.651Z,636.00
2023-04-26T02:06:34.736Z,640.00
2023-04-26T02:07:34.761Z,638.00
2023-04-26T02:08:34.828Z,638.00
2023-04-26T02:09:34.913Z,640.00
2023-04-26T02:10:34.941Z,638.00
2023-04-26T02:11:34.983Z,637.00
2023-04-26T02:12:35.074Z,641.00
2023-04-26T02:13:35.161Z,637.00
2023-04-26T02:14:35.185Z,637.00
2023-04-26T02:15:35.247Z,637.00
2023-04-26T02:16:35.376Z,639.00
2023-04-26T02:17:34.366Z,638.00
2023-04-26T02:18:34.409Z,634.00
2023-04-26T02:19:35.462Z,638.00
2023-04-26T02:20:35.527Z,634.00
2023-04-26T02:21:35.610Z,636.00
2023-04-26T02:22:35.670Z,634.00
2023-04-26T02:23:34.701Z,639.00
2023-04-26T02:24:34.737Z,636.00
2023-04-26T02:25:35.798Z,633.00
2023-04-26T02:26:35.866Z,639.00
2023-04-26T02:27:34.898Z,635.00
2023-04-26T02:28:35.966Z,636.00
2023-04-26T02:30:35.009Z,637.00
2023-04-26T02:31:35.065Z,640.00
2023-04-26T02:32:36.039Z,639.00
2023-04-26T02:33:36.073Z,639.00
2023-04-26T02:34:34.978Z,641.00
2023-04-26T02:35:34.977Z,634.00
2023-04-26T02:36:34.975Z,633.00
2023-04-26T02:37:35.962Z,640.00
2023-04-26T02:38:36.027Z,632.00
2023-04-26T02:39:34.962Z,639.00
2023-04-26T02:40:34.955Z,637.00
2023-04-26T02:41:35.991Z,638.00
2023-04-26T02:42:34.966Z,638.00
2023-04-26T02:43:35.931Z,635.00
2023-04-26T02:44:35.918Z,633.00
2023-04-26T02:45:35.919Z,638.00
2023-04-26T02:46:35.956Z,629.00
2023-04-26T02:47:34.937Z,636.00
2023-04-26T02:48:34.905Z,635.00
2023-04-26T02:49:35.881Z,635.00
2023-04-26T02:50:35.881Z,638.00
2023-04-26T02:51:35.910Z,634.00
2023-04-26T02:52:35.868Z,633.00
2023-04-26T02:53:34.941Z,635.00
2023-04-26T02:54:34.905Z,634.00
2023-04-26T02:55:34.870Z,630.00
2023-04-26T02:56:34.900Z,636.00
2023-04-26T02:57:36.033Z,636.00
2023-04-26T02:58:35.011Z,638.00
2023-04-26T02:59:35.061Z,637.00
2023-04-26T03:00:35.146Z,636.00
2023-04-26T03:01:35.287Z,632.00
2023-04-26T03:02:36.490Z,639.00
2023-04-26T03:03:36.371Z,635.00
2023-04-26T03:04:35.329Z,633.00
2023-04-26T03:05:36.400Z,634.00
2023-04-26T03:06:35.476Z,638.00
2023-04-26T03:07:35.494Z,635.00
2023-04-26T03:08:36.567Z,636.00
2023-04-26T03:09:36.599Z,632.00
2023-04-26T03:10:36.671Z,635.00
2023-04-26T03:11:36.697Z,636.00
2023-04-26T03:12:36.754Z,632.00
2023-04-26T03:13:36.811Z,634.00
2023-04-26T03:14:36.868Z,634.00
2023-04-26T03:15:35.927Z,631.00
2023-04-26T03:16:36.062Z,633.00
2023-04-26T03:17:37.065Z,636.00
2023-04-26T03:18:37.086Z,636.00
2023-04-26T03:19:37.146Z,631.00
2023-04-26T03:20:36.208Z,630.00
2023-04-26T03:21:37.292Z,634.00
2023-04-26T03:22:37.318Z,629.00
2023-04-26T03:23:37.384Z,632.00
2023-04-26T03:24:36.442Z,633.00
2023-04-26T03:25:37.467Z,632.00
2023-04-26T03:26:37.602Z,635.00
2023-04-26T03:27:37.584Z,634.00
2023-04-26T03:28:37.674Z,632.00
2023-04-26T03:29:37.697Z,628.00
2023-04-26T03:30:36.774Z,633.00
2023-04-26T03:31:36.860Z,628.00
2023-04-26T03:32:36.934Z,634.00
2023-04-26T03:33:37.979Z,628.00
2023-04-26T03:34:38.014Z,628.00
2023-04-26T03:35:38.063Z,625.00
2023-04-26T03:36:37.162Z,630.00
2023-04-26T03:37:37.188Z,625.00
2023-04-26T03:38:38.241Z,629.00
2023-04-26T03:39:37.300Z,627.00
2023-04-26T03:40:38.360Z,626.00
2023-04-26T03:41:38.431Z,629.00
2023-04-26T03:42:38.478Z,630.00
2023-04-26T03:43:38.530Z,627.00
2023-04-26T03:44:37.572Z,629.00
2023-04-26T03:45:37.723Z,622.00
2023-04-26T03:46:38.675Z,629.00
2023-04-26T03:47:37.788Z,626.00
2023-04-26T03:48:37.728Z,625.00
2023-04-26T03:49:37.767Z,626.00
2023-04-26T03:50:38.853Z,623.00
2023-04-26T03:51:38.859Z,622.00
2023-04-26T03:52:37.905Z,628.00
2023-04-26T03:53:38.943Z,629.00
2023-04-26T03:54:38.967Z,622.00
2023-04-26T03:55:39.011Z,625.00
2023-04-26T03:56:39.076Z,621.00
2023-04-26T03:57:39.124Z,623.00
2023-04-26T03:58:39.175Z,620.00
2023-04-26T03:59:38.183Z,620.00
2023-04-26T04:00:39.235Z,624.00
2023-04-26T04:01:39.274Z,623.00
2023-04-26T04:02:39.325Z,623.00
2023-04-26T04:04:38.441Z,625.00
2023-04-26T04:05:39.537Z,621.00
2023-04-26T04:06:38.311Z,622.00
2023-04-26T04:07:38.303Z,620.00
2023-04-26T04:08:39.313Z,628.00
2023-04-26T04:09:38.336Z,619.00
2023-04-26T04:10:39.339Z,621.00
2023-04-26T04:11:38.358Z,621.00
2023-04-26T04:12:39.375Z,620.00
2023-04-26T04:13:39.400Z,623.00
2023-04-26T04:14:38.429Z,622.00
2023-04-26T04:15:38.429Z,625.00
2023-04-26T04:16:38.424Z,621.00
2023-04-26T04:17:38.881Z,618.00
2023-04-26T04:18:38.430Z,621.00
2023-04-26T04:19:39.451Z,618.00
2023-04-26T04:20:39.446Z,617.00
2023-04-26T04:21:38.445Z,622.00
2023-04-26T04:22:39.465Z,618.00
2023-04-26T04:23:39.450Z,617.00
2023-04-26T04:24:39.476Z,617.00
2023-04-26T04:25:38.506Z,620.00
2023-04-26T04:26:39.509Z,622.00
2023-04-26T04:27:38.531Z,619.00
2023-04-26T04:28:38.550Z,620.00
2023-04-26T04:29:39.548Z,621.00
2023-04-26T04:30:38.598Z,618.00
2023-04-26T04:31:39.646Z,619.00
2023-04-26T04:32:38.610Z,618.00
2023-04-26T04:33:38.594Z,618.00
2023-04-26T04:34:38.623Z,618.00
2023-04-26T04:35:38.634Z,611.00
2023-04-26T04:36:38.632Z,622.00
2023-04-26T04:37:39.670Z,617.00
2023-04-26T04:38:38.675Z,618.00
2023-04-26T04:39:39.661Z,614.00
2023-04-26T04:40:39.686Z,615.00
2023-04-26T04:41:38.680Z,615.00
2023-04-26T04:42:39.700Z,620.00
2023-04-26T04:43:39.691Z,618.00
2023-04-26T04:44:38.708Z,617.00
2023-04-26T04:45:39.715Z,614.00
2023-04-26T04:46:39.757Z,613.00
2023-04-26T04:47:39.840Z,614.00
2023-04-26T04:48:39.757Z,616.00
2023-04-26T04:49:39.774Z,616.00
2023-04-26T04:50:39.807Z,615.00
2023-04-26T04:51:39.787Z,615.00
2023-04-26T04:52:39.816Z,616.00
2023-04-26T04:53:39.850Z,615.00
2023-04-26T04:54:39.828Z,612.00
2023-04-26T04:55:39.861Z,618.00
2023-04-26T04:56:38.865Z,615.00
2023-04-26T04:58:38.868Z,613.00
2023-04-26T04:59:38.875Z,614.00
2023-04-26T05:00:39.871Z,622.00
2023-04-26T05:01:39.082Z,616.00
2023-04-26T05:02:40.069Z,614.00
2023-04-26T05:03:39.952Z,613.00
2023-04-26T05:04:40.084Z,615.00
2023-04-26T05:05:39.921Z,615.00
2023-04-26T05:06:39.927Z,616.00
2023-04-26T05:07:39.952Z,618.00
2023-04-26T05:08:39.892Z,618.00
2023-04-26T05:09:38.904Z,620.00
2023-04-26T05:10:38.917Z,619.00
2023-04-26T05:11:39.954Z,613.00
2023-04-26T05:12:39.964Z,609.00
2023-04-26T05:13:39.979Z,613.00
2023-04-26T05:14:38.965Z,616.00
2023-04-26T05:15:38.934Z,616.00
2023-04-26T05:16:40.029Z,616.00
2023-04-26T05:17:39.013Z,610.00
2023-04-26T05:18:40.153Z,608.00
2023-04-26T05:19:39.980Z,617.00
2023-04-26T05:20:39.971Z,615.00
2023-04-26T05:21:38.957Z,616.00
2023-04-26T05:22:39.989Z,620.00
2023-04-26T05:23:39.993Z,620.00
2023-04-26T05:24:39.980Z,616.00
2023-04-26T05:25:40.007Z,615.00
2023-04-26T05:26:38.990Z,615.00
2023-04-26T05:27:40.007Z,616.00
2023-04-26T05:28:40.015Z,613.00
2023-04-26T05:29:40.061Z,619.00
2023-04-26T05:30:40.032Z,614.00
2023-04-26T05:31:39.080Z,617.00
2023-04-26T05:32:40.096Z,616.00
2023-04-26T05:33:40.053Z,615.00
2023-04-26T05:34:40.259Z,613.00
2023-04-26T05:35:40.582Z,617.00
2023-04-26T05:36:39.102Z,615.00
2023-04-26T05:37:39.148Z,614.00
2023-04-26T05:38:40.134Z,616.00
2023-04-26T05:39:39.149Z,611.00
2023-04-26T05:40:39.228Z,611.00
2023-04-26T05:41:39.162Z,619.00
2023-04-26T05:42:40.165Z,624.00
2023-04-26T05:43:40.840Z,615.00
2023-04-26T05:44:40.325Z,615.00
2023-04-26T05:45:40.232Z,617.00
2023-04-26T05:46:39.274Z,616.00
2023-04-26T05:47:41.182Z,621.00
2023-04-26T05:48:40.812Z,620.00
2023-04-26T05:49:40.687Z,621.00
2023-04-26T05:50:40.146Z,621.00
2023-04-26T05:51:40.571Z,622.00
2023-04-26T05:52:41.577Z,619.00
2023-04-26T05:53:39.448Z,623.00
2023-04-26T05:54:40.666Z,632.00
2023-04-26T05:55:40.685Z,637.00
2023-04-26T05:56:39.663Z,639.00
2023-04-26T05:57:41.006Z,644.00
2023-04-26T05:58:39.588Z,637.00
2023-04-26T05:59:40.653Z,649.00
2023-04-26T06:00:39.772Z,654.00
2023-04-26T06:01:39.844Z,654.00
2023-04-26T06:02:40.720Z,707.00
2023-04-26T06:03:39.962Z,867.00
2023-04-26T06:04:40.728Z,754.00
2023-04-26T06:05:39.764Z,772.00
2023-04-26T06:06:42.124Z,785.00
2023-04-26T06:07:41.083Z,801.00
2023-04-26T06:08:40.843Z,822.00
2023-04-26T06:09:40.791Z,857.00
2023-04-26T06:10:39.795Z,874.00
2023-04-26T06:11:40.852Z,887.00
2023-04-26T06:12:40.954Z,910.00
2023-04-26T06:13:40.832Z,909.00
2023-04-26T06:14:40.818Z,939.00
2023-04-26T06:15:40.837Z,970.00
2023-04-26T06:16:42.368Z,966.00
2023-04-26T06:17:40.819Z,998.00
2023-04-26T06:18:40.896Z,1006.00
2023-04-26T06:19:40.813Z,1024.00
2023-04-26T06:20:39.786Z,1033.00
2023-04-26T06:21:40.869Z,1043.00
2023-04-26T06:22:40.817Z,1066.00
2023-04-26T06:23:39.782Z,1083.00
2023-04-26T06:24:39.825Z,1102.00
2023-04-26T06:25:40.748Z,1109.00
2023-04-26T06:26:40.752Z,1128.00
2023-04-26T06:27:40.808Z,1143.00
2023-04-26T06:28:42.315Z,1142.00
2023-04-26T06:29:41.060Z,1172.00
2023-04-26T06:30:41.034Z,1172.00
2023-04-26T06:31:41.077Z,1202.00
2023-04-26T06:32:41.152Z,1208.00
2023-04-26T06:33:41.172Z,1223.00
2023-04-26T06:34:41.178Z,1241.00
2023-04-26T06:35:40.236Z,1238.00
2023-04-26T06:36:40.294Z,1264.00
2023-04-26T06:37:41.330Z,1268.00
2023-04-26T06:38:41.364Z,1278.00
2023-04-26T06:39:40.405Z,1278.00
2023-04-26T06:40:40.440Z,1294.00
2023-04-26T06:41:41.499Z,1298.00
2023-04-26T06:42:41.693Z,1320.00
2023-04-26T06:43:41.557Z,1347.00
2023-04-26T06:44:41.847Z,1350.00
2023-04-26T06:45:43.320Z,1347.00
2023-04-26T06:46:41.652Z,1372.00
2023-04-26T06:47:41.665Z,1388.00
2023-04-26T06:48:41.636Z,1380.00
2023-04-26T06:49:41.652Z,1379.00
2023-04-26T06:50:41.718Z,1407.00
2023-04-26T06:51:40.636Z,1458.00
2023-04-26T06:52:41.598Z,1434.00
2023-04-26T06:53:41.832Z,1443.00
2023-04-26T06:54:53.733Z,1428.00
2023-04-26T06:55:41.605Z,1430.00
2023-04-26T06:56:40.575Z,1442.00
2023-04-26T06:57:41.910Z,1451.00
2023-04-26T06:58:41.771Z,1495.00
2023-04-26T06:59:41.540Z,1498.00
2023-04-26T07:00:41.556Z,1481.00
2023-04-26T07:01:41.765Z,1454.00
2023-04-26T07:02:41.676Z,1353.00
2023-04-26T07:03:41.724Z,1272.00
2023-04-26T07:04:40.684Z,1159.00
2023-04-26T07:05:41.703Z,1038.00
2023-04-26T07:06:41.576Z,894.00
2023-04-26T07:07:42.441Z,996.00
2023-04-26T07:08:41.501Z,1115.00
2023-04-26T07:09:41.500Z,1207.00
2023-04-26T07:10:41.520Z,1216.00
2023-04-26T07:11:41.467Z,1238.00
2023-04-26T07:12:41.546Z,1254.00
2023-04-26T07:13:41.477Z,1235.00
2023-04-26T07:14:41.452Z,1261.00
2023-04-26T07:15:41.548Z,1244.00
2023-04-26T07:16:41.619Z,1276.00
2023-04-26T07:17:41.593Z,1286.00
2023-04-26T07:18:41.604Z,1285.00
2023-04-26T07:19:41.700Z,1295.00
2023-04-26T07:20:42.145Z,1320.00
2023-04-26T07:21:40.742Z,1322.00
2023-04-26T07:22:41.830Z,1345.00
2023-04-26T07:23:40.793Z,1358.00
2023-04-26T07:24:40.857Z,1367.00
2023-04-26T07:25:40.942Z,1364.00
2023-04-26T07:26:41.953Z,1375.00
2023-04-26T07:27:40.948Z,1378.00
2023-04-26T07:28:42.085Z,1381.00
2023-04-26T07:29:42.006Z,1397.00
2023-04-26T07:30:42.058Z,1397.00
2023-04-26T07:31:41.085Z,1414.00
2023-04-26T07:32:41.252Z,1410.00
2023-04-26T07:33:41.260Z,1419.00
2023-04-26T07:34:42.151Z,1418.00
2023-04-26T07:35:42.164Z,1414.00
2023-04-26T07:36:42.213Z,1436.00
2023-04-26T07:37:42.224Z,1444.00
2023-04-26T07:38:41.228Z,1440.00
2023-04-26T07:39:42.295Z,1458.00
2023-04-26T07:40:42.276Z,1465.00
2023-04-26T07:41:43.877Z,1462.00
2023-04-26T07:42:41.406Z,1492.00
2023-04-26T07:43:42.279Z,1514.00
2023-04-26T07:44:42.268Z,1512.00
2023-04-26T07:45:42.403Z,1481.00
2023-04-26T07:46:42.253Z,1495.00
2023-04-26T07:47:42.251Z,1487.00
2023-04-26T07:48:43.233Z,1489.00
2023-04-26T07:49:41.238Z,1498.00
2023-04-26T07:50:42.222Z,1491.00
2023-04-26T07:51:42.209Z,1486.00
2023-04-26T07:52:42.202Z,1483.00
2023-04-26T07:53:42.258Z,1494.00
2023-04-26T07:54:42.202Z,1484.00
2023-04-26T07:55:42.192Z,1503.00
2023-04-26T07:56:42.169Z,1484.00
2023-04-26T07:57:41.171Z,1479.00
2023-04-26T07:58:41.248Z,1489.00
2023-04-26T07:59:42.162Z,1490.00
2023-04-26T08:00:41.162Z,1480.00
2023-04-26T08:01:41.181Z,1479.00
2023-04-26T08:02:44.458Z,1470.00
2023-04-26T08:03:42.435Z,1471.00
2023-04-26T08:04:41.245Z,1467.00
2023-04-26T08:05:42.289Z,1462.00
2023-04-26T08:06:41.169Z,1447.00
2023-04-26T08:07:42.104Z,1457.00
2023-04-26T08:08:42.083Z,1447.00
2023-04-26T08:09:42.085Z,1443.00
2023-04-26T08:10:42.069Z,1452.00
2023-04-26T08:11:41.092Z,1436.00
2023-04-26T08:12:41.066Z,1431.00
2023-04-26T08:13:42.051Z,1434.00
2023-04-26T08:14:42.398Z,1438.00
2023-04-26T08:15:41.064Z,1440.00
2023-04-26T08:16:42.097Z,1432.00
2023-04-26T08:17:42.123Z,1440.00
2023-04-26T08:18:43.389Z,1430.00
2023-04-26T08:19:42.044Z,1445.00
2023-04-26T08:20:42.020Z,1439.00
2023-04-26T08:21:42.145Z,1419.00
2023-04-26T08:22:42.040Z,1419.00
2023-04-26T08:23:42.014Z,1413.00
2023-04-26T08:24:41.005Z,1422.00
2023-04-26T08:25:41.964Z,1400.00
2023-04-26T08:26:41.961Z,1404.00
2023-04-26T08:27:41.961Z,1405.00
2023-04-26T08:28:41.962Z,1403.00
2023-04-26T08:29:41.973Z,1399.00
2023-04-26T08:30:41.253Z,1394.00
2023-04-26T08:31:41.999Z,1390.00
2023-04-26T08:32:41.970Z,1387.00
2023-04-26T08:33:40.958Z,1393.00
2023-04-26T08:34:40.925Z,1392.00
2023-04-26T08:35:40.950Z,1374.00
2023-04-26T08:36:41.903Z,1370.00
2023-04-26T08:37:41.898Z,1360.00
2023-04-26T08:38:40.888Z,1366.00
2023-04-26T08:39:41.912Z,1356.00
2023-04-26T08:40:41.866Z,1370.00
2023-04-26T08:41:40.866Z,1366.00
2023-04-26T08:42:41.882Z,1352.00
2023-04-26T08:43:42.262Z,1340.00
2023-04-26T08:44:41.898Z,1350.00
2023-04-26T08:45:41.854Z,1345.00
2023-04-26T08:46:42.149Z,1341.00
2023-04-26T08:47:41.955Z,1355.00
2023-04-26T08:48:40.938Z,1350.00
2023-04-26T08:49:41.966Z,1341.00
2023-04-26T08:50:40.971Z,1337.00
2023-04-26T08:51:41.999Z,1331.00
2023-04-26T08:52:42.054Z,1344.00
2023-04-26T08:53:42.132Z,1325.00
2023-04-26T08:54:41.115Z,1334.00
2023-04-26T08:55:41.137Z,1333.00
2023-04-26T08:56:42.272Z,1325.00
2023-04-26T08:57:42.199Z,1331.00
2023-04-26T08:58:41.303Z,1313.00
2023-04-26T08:59:42.259Z,1323.00
2023-04-26T09:00:41.301Z,1322.00
2023-04-26T09:01:42.420Z,1313.00
2023-04-26T09:02:42.643Z,1310.00
2023-04-26T09:03:41.423Z,1312.00
2023-04-26T09:04:42.467Z,1308.00
2023-04-26T09:05:42.394Z,1295.00
2023-04-26T09:06:42.381Z,1304.00
2023-04-26T09:07:42.365Z,1301.00
2023-04-26T09:08:42.756Z,1283.00
2023-04-26T09:09:42.483Z,1284.00
2023-04-26T09:10:41.412Z,1295.00
2023-04-26T09:11:41.454Z,1277.00
2023-04-26T09:12:42.489Z,1285.00
2023-04-26T09:13:42.434Z,1269.00
2023-04-26T09:14:42.462Z,1272.00
2023-04-26T09:15:42.513Z,1280.00
2023-04-26T09:16:41.568Z,1263.00
2023-04-26T09:17:41.796Z,1266.00
2023-04-26T09:18:41.762Z,1269.00
2023-04-26T09:19:42.504Z,1260.00
2023-04-26T09:20:42.553Z,1267.00
2023-04-26T09:21:42.559Z,1250.00
2023-04-26T09:22:42.552Z,1254.00
2023-04-26T09:23:42.747Z,1253.00
2023-04-26T09:24:42.641Z,1248.00
2023-04-26T09:25:41.644Z,1248.00
2023-04-26T09:26:42.608Z,1208.00
2023-04-26T09:27:42.683Z,811.00
2023-04-26T09:28:42.770Z,618.00
2023-04-26T09:29:42.747Z,538.00
2023-04-26T09:30:41.887Z,499.00
2023-04-26T09:31:42.836Z,509.00
2023-04-26T09:32:41.793Z,519.00
2023-04-26T09:33:42.785Z,540.00
2023-04-26T09:34:42.913Z,554.00
2023-04-26T09:35:42.846Z,544.00
2023-04-26T09:36:42.820Z,547.00
2023-04-26T09:37:50.964Z,493.00
2023-04-26T09:38:42.834Z,495.00
2023-04-26T09:39:42.798Z,502.00
2023-04-26T09:40:42.789Z,524.00
2023-04-26T09:41:42.774Z,559.00
2023-04-26T09:42:42.804Z,605.00
2023-04-26T09:43:42.817Z,609.00
2023-04-26T09:44:41.735Z,591.00
2023-04-26T09:45:42.781Z,602.00
2023-04-26T09:46:41.836Z,595.00
2023-04-26T09:47:42.911Z,539.00
2023-04-26T09:48:42.832Z,486.00
2023-04-26T09:49:42.736Z,522.00
2023-04-26T09:50:43.130Z,489.00
2023-04-26T09:51:42.836Z,581.00
2023-04-26T09:52:42.908Z,600.00
2023-04-26T09:53:42.971Z,651.00
2023-04-26T09:54:42.016Z,750.00
2023-04-26T09:55:42.097Z,742.00
2023-04-26T09:56:43.204Z,756.00
2023-04-26T09:57:43.170Z,829.00
2023-04-26T09:58:42.401Z,821.00
2023-04-26T09:59:43.210Z,836.00
2023-04-26T10:00:43.245Z,870.00
2023-04-26T10:01:43.277Z,811.00
2023-04-26T10:02:43.322Z,849.00
2023-04-26T10:03:42.594Z,863.00
2023-04-26T10:04:42.269Z,891.00
2023-04-26T10:05:43.275Z,664.00
2023-04-26T10:06:43.336Z,663.00
2023-04-26T10:07:43.315Z,725.00
2023-04-26T10:08:43.391Z,815.00
2023-04-26T10:09:43.442Z,850.00
2023-04-26T10:10:43.487Z,842.00
2023-04-26T10:11:43.553Z,882.00
2023-04-26T10:12:43.589Z,852.00
2023-04-26T10:13:42.683Z,910.00
2023-04-26T10:14:42.653Z,910.00
2023-04-26T10:15:43.665Z,958.00
2023-04-26T10:16:43.728Z,947.00
2023-04-26T10:17:42.798Z,887.00
2023-04-26T10:18:43.813Z,926.00
2023-04-26T10:19:42.894Z,963.00
2023-04-26T10:20:42.845Z,882.00
2023-04-26T10:21:42.872Z,923.00
2023-04-26T10:22:42.916Z,954.00
2023-04-26T10:23:43.877Z,847.00
2023-04-26T10:24:43.893Z,717.00
2023-04-26T10:25:42.953Z,716.00
2023-04-26T10:26:42.954Z,731.00
2023-04-26T10:27:42.977Z,871.00
2023-04-26T10:28:42.985Z,935.00
2023-04-26T10:29:43.945Z,924.00
2023-04-26T10:30:42.969Z,941.00
2023-04-26T10:31:44.029Z,906.00
2023-04-26T10:32:44.051Z,909.00
2023-04-26T10:33:42.987Z,952.00
2023-04-26T10:34:43.027Z,910.00
2023-04-26T10:35:43.989Z,886.00
2023-04-26T10:36:43.990Z,873.00
2023-04-26T10:37:43.081Z,924.00
2023-04-26T10:38:44.063Z,947.00
2023-04-26T10:39:43.036Z,906.00
2023-04-26T10:40:43.033Z,865.00
2023-04-26T10:41:44.126Z,669.00
2023-04-26T10:42:43.048Z,658.00
2023-04-26T10:43:43.045Z,667.00
2023-04-26T10:44:43.067Z,765.00
2023-04-26T10:45:43.192Z,703.00
2023-04-26T10:46:44.258Z,666.00
2023-04-26T10:47:43.156Z,676.00
2023-04-26T10:48:44.339Z,663.00
2023-04-26T10:49:44.168Z,664.00
2023-04-26T10:50:44.188Z,689.00
2023-04-26T10:51:43.239Z,660.00
2023-04-26T10:52:44.269Z,664.00
2023-04-26T10:53:43.302Z,650.00
2023-04-26T10:54:43.400Z,647.00
2023-04-26T10:55:44.420Z,637.00
2023-04-26T10:56:44.439Z,643.00
2023-04-26T10:57:44.535Z,653.00
2023-04-26T10:58:43.524Z,646.00
2023-04-26T10:59:54.274Z,630.00
2023-04-26T11:00:44.610Z,631.00
2023-04-26T11:01:43.612Z,630.00
2023-04-26T11:02:43.606Z,629.00
2023-04-26T11:03:44.757Z,611.00
2023-04-26T11:04:44.679Z,622.00
2023-04-26T11:05:44.568Z,606.00
2023-04-26T11:06:44.547Z,598.00
2023-04-26T11:07:44.556Z,565.00
2023-04-26T11:08:44.725Z,581.00
2023-04-26T11:09:44.544Z,600.00
2023-04-26T11:10:44.604Z,595.00
2023-04-26T11:11:43.490Z,597.00
2023-04-26T11:12:44.508Z,611.00
2023-04-26T11:13:43.514Z,606.00
2023-04-26T11:14:44.528Z,621.00
2023-04-26T11:15:43.495Z,612.00
2023-04-26T11:16:43.513Z,954.00
2023-04-26T11:17:44.457Z,1053.00
2023-04-26T11:18:43.466Z,795.00
2023-04-26T11:19:43.446Z,744.00
2023-04-26T11:20:44.665Z,687.00
2023-04-26T11:21:43.464Z,720.00
2023-04-26T11:22:44.422Z,652.00
2023-04-26T11:23:44.453Z,636.00
2023-04-26T11:24:44.466Z,609.00
2023-04-26T11:25:44.462Z,617.00
2023-04-26T11:26:43.433Z,633.00
2023-04-26T11:27:43.471Z,609.00
2023-04-26T11:28:43.579Z,606.00
2023-04-26T11:29:44.598Z,624.00
2023-04-26T11:30:44.565Z,618.00
2023-04-26T11:31:44.678Z,633.00
2023-04-26T11:32:43.686Z,632.00
2023-04-26T11:33:44.838Z,597.00
2023-04-26T11:34:44.779Z,626.00
2023-04-26T11:35:44.786Z,632.00
2023-04-26T11:36:44.808Z,702.00
2023-04-26T11:37:43.873Z,722.00
2023-04-26T11:38:44.938Z,708.00
2023-04-26T11:39:43.907Z,757.00
2023-04-26T11:40:44.949Z,778.00
2023-04-26T11:41:44.962Z,781.00
2023-04-26T11:42:43.969Z,772.00
2023-04-26T11:43:45.017Z,760.00
2023-04-26T11:44:45.127Z,772.00
2023-04-26T11:45:45.010Z,799.00
2023-04-26T11:46:44.045Z,797.00
2023-04-26T11:47:45.359Z,785.00
2023-04-26T11:48:44.051Z,816.00
2023-04-26T11:49:45.066Z,813.00
2023-04-26T11:50:44.160Z,821.00
2023-04-26T11:51:44.273Z,855.00
2023-04-26T11:52:44.154Z,883.00
2023-04-26T11:53:44.233Z,888.00
2023-04-26T11:54:45.156Z,884.00
2023-04-26T11:55:44.158Z,869.00
2023-04-26T11:56:45.125Z,862.00
2023-04-26T11:57:44.171Z,865.00
2023-04-26T11:58:45.153Z,885.00
2023-04-26T11:59:45.208Z,869.00
2023-04-26T12:00:45.250Z,881.00
2023-04-26T12:01:44.218Z,887.00
2023-04-26T12:02:44.252Z,859.00
2023-04-26T12:03:44.430Z,869.00
2023-04-26T12:04:44.479Z,879.00
2023-04-26T12:05:45.301Z,863.00
2023-04-26T12:06:45.270Z,872.00
2023-04-26T12:07:45.268Z,879.00
2023-04-26T12:08:45.292Z,884.00
2023-04-26T12:09:45.321Z,895.00
2023-04-26T12:10:44.322Z,874.00
2023-04-26T12:11:44.340Z,883.00
2023-04-26T12:12:45.369Z,886.00
2023-04-26T12:13:45.431Z,901.00
2023-04-26T12:14:44.409Z,887.00
2023-04-26T12:15:45.454Z,892.00
2023-04-26T12:16:45.620Z,878.00
2023-04-26T12:17:44.493Z,882.00
2023-04-26T12:18:44.442Z,882.00
2023-04-26T12:19:44.460Z,893.00
2023-04-26T12:20:44.480Z,886.00
2023-04-26T12:21:45.494Z,876.00
2023-04-26T12:22:44.492Z,892.00
2023-04-26T12:23:44.524Z,887.00
2023-04-26T12:24:44.706Z,890.00
2023-04-26T12:25:45.526Z,892.00